Golden Triangle Regional Airport Columbus, W Point, Starkville US
ICAO: KGTR
IATA: GTR
Category: Medium
Scheduled Services: Yes

Elevation: 264 ft
TransAlt. 18000 ft.

Airport Communications:
COLUMBUS APP/DEP:135.6
ATIS:126.375
AWOS 3:126.375
COLUMBUS CLNC DEL:126.25
CTAF:120.025
GND/CLNC DEL:135.375
TWR:120.025
UNICOM:122.8

KGTR Zoom In..

Runways:

(A) RW 18 length 8003 ft width 150 ft
ILS 110.70 / hdg 182

(B) RW 36 length 8003 ft width 150 ft
ILS 111.15 / hdg 2

Location; KGTR
Day. 16 / Time. 18.07 Zulu
* Altimeter: 30.02
* Temperature: 32° c. 89.6°f.
* Wind from: 030° Speed 04 kn.
Dewpoint: 26° c.
Visibility: 10 Statute Miles.

KGTR 161807Z 03004KT 10SM 32/26 A3002 RMK AO2 LTG DSNT S AND SW PNO $


Wind From 030°
Speed 04 kn.

 
 
jpsmedia.com for Web Design worldairports.se 2018   terms of use